createdAt,value
2019-06-20T00:02:04.709Z,35.19
2019-06-20T00:04:36.047Z,35.19
2019-06-20T00:07:07.370Z,34.85
2019-06-20T00:09:40.473Z,34.82
2019-06-20T00:12:13.075Z,34.42
2019-06-20T00:14:43.277Z,34.50
2019-06-20T00:17:14.854Z,34.62
2019-06-20T00:19:45.333Z,34.77
2019-06-20T00:22:16.035Z,35.38
2019-06-20T00:24:46.321Z,35.62
2019-06-20T00:27:16.362Z,35.99
2019-06-20T00:29:46.349Z,36.63
2019-06-20T00:32:17.334Z,36.99
2019-06-20T00:34:47.460Z,36.98
2019-06-20T00:37:19.248Z,37.40
2019-06-20T00:39:49.711Z,37.97
2019-06-20T00:42:24.826Z,38.53
2019-06-20T00:44:54.910Z,38.53
2019-06-20T00:47:25.108Z,38.65
2019-06-20T00:49:55.461Z,40.15
2019-06-20T00:52:35.078Z,41.28
2019-06-20T00:55:05.968Z,42.79
2019-06-20T00:57:38.207Z,43.59
2019-06-20T01:00:09.317Z,44.58
2019-06-20T01:02:40.855Z,44.98
2019-06-20T01:05:14.439Z,45.57
2019-06-20T01:07:45.377Z,46.19
2019-06-20T01:10:15.294Z,46.01
2019-06-20T01:12:46.229Z,46.68
2019-06-20T01:15:16.246Z,47.09
2019-06-20T01:17:48.484Z,46.88
2019-06-20T01:20:20.218Z,47.00
2019-06-20T01:23:01.674Z,47.08
2019-06-20T01:25:39.599Z,45.63
2019-06-20T01:28:09.643Z,45.58
2019-06-20T01:30:39.683Z,46.10
2019-06-20T01:33:09.707Z,47.01
2019-06-20T01:35:39.971Z,47.50
2019-06-20T01:38:10.383Z,46.88
2019-06-20T01:40:40.507Z,46.73
2019-06-20T01:43:10.564Z,46.54
2019-06-20T01:45:40.752Z,46.78
2019-06-20T01:48:10.823Z,46.88
2019-06-20T01:50:40.807Z,47.25
2019-06-20T01:53:19.247Z,47.00
2019-06-20T01:55:53.023Z,47.29
2019-06-20T01:58:23.079Z,47.82
2019-06-20T02:00:58.922Z,48.41
2019-06-20T02:03:32.902Z,48.71
2019-06-20T02:06:03.575Z,48.97
2019-06-20T02:08:34.407Z,48.61
2019-06-20T02:11:04.418Z,48.68
2019-06-20T02:13:34.366Z,48.49
2019-06-20T02:16:04.653Z,49.37
2019-06-20T02:18:36.557Z,49.61
2019-06-20T02:21:07.059Z,49.82
2019-06-20T02:23:40.010Z,49.81
2019-06-20T02:26:10.431Z,49.86
2019-06-20T02:28:42.393Z,50.40
2019-06-20T02:31:12.489Z,51.03
2019-06-20T02:33:42.532Z,51.05
2019-06-20T02:36:12.666Z,51.35
2019-06-20T02:38:42.890Z,51.44
2019-06-20T02:41:25.884Z,51.82
2019-06-20T02:43:55.859Z,51.00
2019-06-20T02:46:28.719Z,51.45
2019-06-20T02:48:59.247Z,51.63
2019-06-20T02:51:41.252Z,51.49
2019-06-20T02:54:36.962Z,51.64
2019-06-20T02:57:07.066Z,51.66
2019-06-20T02:59:44.189Z,51.33
2019-06-20T03:02:15.150Z,51.52
2019-06-20T03:04:46.330Z,51.62
2019-06-20T03:07:22.753Z,51.62
2019-06-20T03:09:55.060Z,52.27
2019-06-20T03:12:31.805Z,52.27
2019-06-20T03:15:04.809Z,52.17
2019-06-20T03:17:35.710Z,52.13
2019-06-20T03:20:16.473Z,52.11
2019-06-20T03:22:51.245Z,52.11
2019-06-20T03:25:35.370Z,52.11
2019-06-20T03:28:08.312Z,51.96
2019-06-20T03:30:41.959Z,52.42
2019-06-20T03:33:12.877Z,52.75
2019-06-20T03:35:43.875Z,52.77
2019-06-20T03:38:17.198Z,53.18
2019-06-20T03:40:50.439Z,52.94
2019-06-20T03:43:21.506Z,52.83
2019-06-20T03:45:52.556Z,52.99
2019-06-20T03:48:24.048Z,52.95
2019-06-20T03:50:56.763Z,53.20
2019-06-20T03:53:28.379Z,52.44
2019-06-20T03:55:59.678Z,52.44
2019-06-20T03:58:30.679Z,52.58
2019-06-20T04:01:05.674Z,52.10
2019-06-20T04:03:37.165Z,52.77
2019-06-20T04:06:08.304Z,52.68
2019-06-20T04:08:39.669Z,52.38
2019-06-20T04:11:10.680Z,51.94
2019-06-20T04:13:42.072Z,52.46
2019-06-20T04:16:55.736Z,52.06
2019-06-20T04:19:56.479Z,52.00
2019-06-20T04:22:31.091Z,51.88
2019-06-20T04:25:32.808Z,51.81
2019-06-20T04:28:19.710Z,51.78
2019-06-20T04:31:01.271Z,51.65
2019-06-20T04:33:50.706Z,50.57
2019-06-20T04:36:37.712Z,49.63
2019-06-20T04:39:39.033Z,49.38
2019-06-20T04:42:32.821Z,49.81
2019-06-20T04:45:34.144Z,49.38
2019-06-20T04:48:19.016Z,48.50
2019-06-20T04:51:39.901Z,47.88
2019-06-20T04:54:28.270Z,46.44
2019-06-20T04:57:15.367Z,45.15
2019-06-20T05:00:07.078Z,43.97
2019-06-20T05:02:39.007Z,43.97
2019-06-20T05:05:12.651Z,43.15
2019-06-20T05:07:43.927Z,43.18
2019-06-20T05:10:16.451Z,42.36
2019-06-20T05:12:46.473Z,41.76
2019-06-20T05:15:17.710Z,40.11
2019-06-20T05:17:49.997Z,40.64
2019-06-20T05:20:24.676Z,42.42
2019-06-20T05:22:56.297Z,43.22
2019-06-20T05:25:31.134Z,44.35
2019-06-20T05:28:04.037Z,42.54
2019-06-20T05:34:58.508Z,43.20
2019-06-20T05:38:40.334Z,41.26
2019-06-20T05:45:20.449Z,39.57
2019-06-20T05:47:50.924Z,41.90
2019-06-20T05:50:22.481Z,40.97
2019-06-20T05:52:55.308Z,39.32
2019-06-20T05:55:43.132Z,39.41
2019-06-20T05:58:17.187Z,38.75
2019-06-20T06:00:51.839Z,37.96
2019-06-20T06:03:23.361Z,37.59
2019-06-20T06:06:05.421Z,36.92
2019-06-20T06:08:37.018Z,36.90
2019-06-20T06:11:08.925Z,36.84
2019-06-20T06:13:39.312Z,37.25
2019-06-20T06:16:26.118Z,38.04
2019-06-20T06:19:30.299Z,38.43
2019-06-20T06:22:03.290Z,37.61
2019-06-20T06:24:46.464Z,37.83
2019-06-20T06:27:38.668Z,37.68
2019-06-20T06:30:17.032Z,37.17
2019-06-20T06:32:54.842Z,36.52
2019-06-20T06:35:26.504Z,36.02
2019-06-20T06:37:58.005Z,35.38
2019-06-20T06:40:30.521Z,35.78
2019-06-20T06:43:01.513Z,35.24
2019-06-20T06:45:44.755Z,34.00
2019-06-20T06:48:38.778Z,33.88
2019-06-20T06:51:55.988Z,33.94
2019-06-20T06:54:34.703Z,34.96
2019-06-20T06:57:20.302Z,34.98
2019-06-20T07:00:06.305Z,35.49
2019-06-20T07:02:37.338Z,36.53
2019-06-20T07:05:09.963Z,37.87
2019-06-20T07:07:41.767Z,38.59
2019-06-20T07:10:16.281Z,38.27
2019-06-20T07:12:48.235Z,38.34
2019-06-20T07:15:19.292Z,38.42
2019-06-20T07:17:50.287Z,38.39
2019-06-20T07:20:21.600Z,37.79
2019-06-20T07:22:55.376Z,37.61
2019-06-20T07:25:26.999Z,36.87
2019-06-20T07:27:58.885Z,36.82
2019-06-20T07:30:29.836Z,37.39
2019-06-20T07:33:00.993Z,36.79
2019-06-20T07:35:32.336Z,36.35
2019-06-20T07:38:28.126Z,36.29
2019-06-20T07:41:00.977Z,35.33
2019-06-20T07:43:32.049Z,34.96
2019-06-20T07:49:47.505Z,36.09
2019-06-20T07:53:02.079Z,36.60
2019-06-20T07:55:43.429Z,36.64
2019-06-20T07:58:23.301Z,36.52
2019-06-20T08:04:19.094Z,35.95
2019-06-20T08:07:17.743Z,35.42
2019-06-20T08:10:17.438Z,35.42
2019-06-20T08:19:07.830Z,35.68
2019-06-20T08:22:14.121Z,35.97
2019-06-20T08:25:17.533Z,36.21
2019-06-20T08:31:08.908Z,36.12
2019-06-20T08:33:41.297Z,35.61
2019-06-20T08:36:13.511Z,35.58
2019-06-20T08:39:00.171Z,35.58
2019-06-20T08:41:31.974Z,33.92
2019-06-20T08:44:04.474Z,32.43
2019-06-20T08:47:07.208Z,31.99
2019-06-20T08:50:11.820Z,31.78
2019-06-20T08:53:01.639Z,32.11
2019-06-20T08:56:07.155Z,31.62
2019-06-20T08:59:23.964Z,31.71
2019-06-20T09:02:37.642Z,31.31
2019-06-20T09:05:51.776Z,30.72
2019-06-20T09:12:13.733Z,31.10
2019-06-20T09:15:23.102Z,30.06
2019-06-20T09:18:45.078Z,29.00
2019-06-20T09:21:36.983Z,29.25
2019-06-20T09:24:48.491Z,29.83
2019-06-20T09:31:10.229Z,29.51
2019-06-20T09:34:44.067Z,28.38
2019-06-20T09:44:40.033Z,29.57
2019-06-20T09:54:48.484Z,31.77
2019-06-20T09:58:18.955Z,30.67
2019-06-20T10:04:57.190Z,29.85
2019-06-20T10:11:59.275Z,30.06
2019-06-20T10:20:54.843Z,28.95
2019-06-20T10:23:31.353Z,28.64
2019-06-20T10:26:04.282Z,28.11
2019-06-20T10:28:40.400Z,27.92
2019-06-20T10:32:06.082Z,27.15
2019-06-20T10:35:17.990Z,27.00
2019-06-20T10:41:11.200Z,26.96
2019-06-20T10:43:42.994Z,26.51
2019-06-20T10:46:18.670Z,25.62
2019-06-20T10:49:15.529Z,25.28
2019-06-20T10:52:08.715Z,25.61
2019-06-20T10:54:41.673Z,25.17
2019-06-20T10:57:13.292Z,24.56
2019-06-20T10:59:44.379Z,24.97
2019-06-20T11:02:16.487Z,24.91
2019-06-20T11:04:47.775Z,24.35
2019-06-20T11:07:21.460Z,24.91
2019-06-20T11:09:52.638Z,24.72
2019-06-20T11:12:23.751Z,25.36
2019-06-20T11:14:55.836Z,25.74
2019-06-20T11:17:27.331Z,25.51
2019-06-20T11:19:58.372Z,26.30
2019-06-20T11:22:29.414Z,25.80
2019-06-20T11:25:00.269Z,26.02
2019-06-20T11:27:31.555Z,25.85
2019-06-20T11:30:02.549Z,25.67
2019-06-20T11:32:33.389Z,25.67
2019-06-20T11:35:09.563Z,26.38
2019-06-20T11:41:22.926Z,26.63
2019-06-20T11:44:03.035Z,27.61
2019-06-20T11:46:35.300Z,27.25
2019-06-20T11:49:06.887Z,26.60
2019-06-20T11:51:39.839Z,26.62
2019-06-20T11:54:13.770Z,26.82
2019-06-20T11:56:53.132Z,26.29
2019-06-20T11:59:37.454Z,25.48
2019-06-20T12:02:12.368Z,26.07
2019-06-20T12:04:47.166Z,28.72
2019-06-20T12:07:25.531Z,31.15
2019-06-20T12:09:59.643Z,32.29
2019-06-20T12:12:34.112Z,34.78
2019-06-20T12:15:11.578Z,35.06
2019-06-20T12:17:45.224Z,35.85
2019-06-20T12:20:16.687Z,34.95
2019-06-20T12:22:58.191Z,34.88
2019-06-20T12:25:29.980Z,35.05
2019-06-20T12:28:00.893Z,34.38
2019-06-20T12:30:35.297Z,34.38
2019-06-20T12:33:06.275Z,33.97
2019-06-20T12:35:48.590Z,34.24
2019-06-20T12:38:21.645Z,34.08
2019-06-20T12:40:53.531Z,33.60
2019-06-20T12:43:27.249Z,33.43
2019-06-20T12:46:01.822Z,33.28
2019-06-20T12:48:34.656Z,33.78
2019-06-20T12:51:11.812Z,34.99
2019-06-20T12:53:47.235Z,36.75
2019-06-20T12:56:22.201Z,37.62
2019-06-20T12:59:04.226Z,38.63
2019-06-20T13:01:47.345Z,37.41
2019-06-20T13:04:30.112Z,39.22
2019-06-20T13:07:00.590Z,37.77
2019-06-20T13:09:32.109Z,36.34
2019-06-20T13:12:07.926Z,35.51
2019-06-20T13:14:48.008Z,34.43
2019-06-20T13:17:21.159Z,33.06
2019-06-20T13:20:11.685Z,30.61
2019-06-20T13:22:47.158Z,29.59
2019-06-20T13:25:32.660Z,31.15
2019-06-20T13:28:26.818Z,31.85
2019-06-20T13:31:03.218Z,32.84
2019-06-20T13:33:49.023Z,34.17
2019-06-20T13:36:28.396Z,33.59
2019-06-20T13:39:10.620Z,34.79
2019-06-20T13:41:52.826Z,34.89
2019-06-20T13:44:24.344Z,34.44
2019-06-20T13:46:58.473Z,32.54
2019-06-20T13:49:35.809Z,30.21
2019-06-20T13:52:10.268Z,28.31
2019-06-20T13:54:43.030Z,26.32
2019-06-20T13:57:18.550Z,25.79
2019-06-20T13:59:52.640Z,24.95
2019-06-20T14:02:22.506Z,24.37
2019-06-20T14:04:53.869Z,24.45
2019-06-20T14:07:32.121Z,25.09
2019-06-20T14:10:34.504Z,26.42
2019-06-20T14:13:19.772Z,24.39
2019-06-20T14:15:58.261Z,24.81
2019-06-20T14:18:34.098Z,24.46
2019-06-20T14:21:05.849Z,24.76
2019-06-20T14:23:37.885Z,24.43
2019-06-20T14:26:14.573Z,24.42
2019-06-20T14:28:49.086Z,24.55
2019-06-20T14:31:29.366Z,24.88
2019-06-20T14:34:20.588Z,24.17
2019-06-20T14:36:52.277Z,24.79
2019-06-20T14:39:38.987Z,24.74
2019-06-20T14:42:10.665Z,24.28
2019-06-20T14:44:46.419Z,24.42
2019-06-20T14:47:25.663Z,24.68
2019-06-20T14:50:03.374Z,25.02
2019-06-20T14:52:46.628Z,24.69
2019-06-20T14:55:18.115Z,24.37
2019-06-20T14:57:55.118Z,24.93
2019-06-20T15:00:36.249Z,26.25
2019-06-20T15:03:10.771Z,30.95
2019-06-20T15:05:52.636Z,30.95
2019-06-20T15:08:24.435Z,32.89
2019-06-20T15:10:56.225Z,34.20
2019-06-20T15:13:28.194Z,35.67
2019-06-20T15:16:00.118Z,35.67
2019-06-20T15:18:32.091Z,36.39
2019-06-20T15:21:07.379Z,36.78
2019-06-20T15:23:42.779Z,35.81
2019-06-20T15:26:20.088Z,35.92
2019-06-20T15:28:53.417Z,35.92
2019-06-20T15:31:44.143Z,34.14
2019-06-20T15:34:15.921Z,34.14
2019-06-20T15:36:55.659Z,33.72
2019-06-20T15:39:46.705Z,32.92
2019-06-20T15:42:18.293Z,32.04
2019-06-20T15:45:05.921Z,30.96
2019-06-20T15:47:53.417Z,30.20
2019-06-20T15:50:40.247Z,30.20
2019-06-20T15:53:10.164Z,28.82
2019-06-20T15:55:48.912Z,27.48
2019-06-20T15:58:34.556Z,26.31
2019-06-20T16:01:14.048Z,25.20
2019-06-20T16:03:52.547Z,25.38
2019-06-20T16:07:08.414Z,24.26
2019-06-20T16:09:40.172Z,24.38
2019-06-20T16:12:15.305Z,24.04
2019-06-20T16:14:47.073Z,24.04
2019-06-20T16:17:20.864Z,24.39
2019-06-20T16:20:33.306Z,24.17
2019-06-20T16:23:05.074Z,24.05
2019-06-20T16:25:36.814Z,23.81
2019-06-20T16:28:26.111Z,23.50
2019-06-20T16:31:10.046Z,23.92
2019-06-20T16:33:39.230Z,23.92
2019-06-20T16:36:13.043Z,23.72
2019-06-20T16:38:47.255Z,23.63
2019-06-20T16:41:40.203Z,23.65
2019-06-20T16:44:21.082Z,23.92
2019-06-20T16:46:53.553Z,23.70
2019-06-20T16:49:35.648Z,23.81
2019-06-20T16:52:09.297Z,24.40
2019-06-20T16:54:55.077Z,26.15
2019-06-20T16:57:50.889Z,26.15
2019-06-20T17:00:40.760Z,27.30
2019-06-20T17:03:23.174Z,27.92
2019-06-20T17:05:58.339Z,27.54
2019-06-20T17:08:30.226Z,26.89
2019-06-20T17:11:16.852Z,26.47
2019-06-20T17:13:53.449Z,26.61
2019-06-20T17:16:35.286Z,26.74
2019-06-20T17:19:11.614Z,26.61
2019-06-20T17:22:02.426Z,25.66
2019-06-20T17:24:41.749Z,25.66
2019-06-20T17:27:29.253Z,25.46
2019-06-20T17:30:01.543Z,25.60
2019-06-20T17:32:34.095Z,25.35
2019-06-20T17:35:20.533Z,25.35
2019-06-20T17:38:01.047Z,26.22
2019-06-20T17:40:51.202Z,26.22
2019-06-20T17:43:30.852Z,25.85
2019-06-20T17:46:05.038Z,25.27
2019-06-20T17:48:50.243Z,25.30
2019-06-20T17:51:34.015Z,25.98
2019-06-20T17:54:13.141Z,26.32
2019-06-20T17:56:48.028Z,26.32
2019-06-20T17:59:30.334Z,25.92
2019-06-20T18:02:19.238Z,26.52
2019-06-20T18:05:05.989Z,27.82
2019-06-20T18:07:40.942Z,28.06
2019-06-20T18:10:57.237Z,27.95
2019-06-20T18:13:34.560Z,27.51
2019-06-20T18:16:06.547Z,27.78
2019-06-20T18:18:38.545Z,28.07
2019-06-20T18:21:10.375Z,28.06
2019-06-20T18:23:49.630Z,28.09
2019-06-20T18:26:50.611Z,28.64
2019-06-20T18:29:24.875Z,28.89
2019-06-20T18:32:04.649Z,29.10
2019-06-20T18:34:39.309Z,28.98
2019-06-20T18:37:31.654Z,29.73
2019-06-20T18:40:03.181Z,30.72
2019-06-20T18:42:38.085Z,31.64
2019-06-20T18:45:10.164Z,32.37
2019-06-20T18:47:52.032Z,33.10
2019-06-20T18:50:25.605Z,33.24
2019-06-20T18:53:05.939Z,33.24
2019-06-20T18:55:49.480Z,33.57
2019-06-20T18:58:29.050Z,33.94
2019-06-20T19:01:00.974Z,34.16
2019-06-20T19:03:32.795Z,34.99
2019-06-20T19:06:07.487Z,35.27
2019-06-20T19:08:39.384Z,35.26
2019-06-20T19:11:11.269Z,35.58
2019-06-20T19:13:55.471Z,35.88
2019-06-20T19:16:24.526Z,36.34
2019-06-20T19:19:11.248Z,36.63
2019-06-20T19:21:46.521Z,36.85
2019-06-20T19:24:33.332Z,37.05
2019-06-20T19:27:06.874Z,37.42
2019-06-20T19:29:42.465Z,38.40
2019-06-20T19:32:16.280Z,38.56
2019-06-20T19:35:13.150Z,38.89
2019-06-20T19:37:47.199Z,39.26
2019-06-20T19:40:42.754Z,39.80
2019-06-20T19:43:23.141Z,39.99
2019-06-20T19:45:57.941Z,40.22
2019-06-20T19:48:29.656Z,40.58
2019-06-20T19:51:02.715Z,41.07
2019-06-20T19:53:40.375Z,41.76
2019-06-20T19:56:49.207Z,41.47
2019-06-20T19:59:28.893Z,41.46
2019-06-20T20:02:19.537Z,41.48
2019-06-20T20:04:53.277Z,41.45
2019-06-20T20:07:26.954Z,41.72
2019-06-20T20:10:00.773Z,41.88
2019-06-20T20:12:43.677Z,41.57
2019-06-20T20:15:17.883Z,41.49
2019-06-20T20:17:56.717Z,41.58
2019-06-20T20:20:28.474Z,41.56
2019-06-20T20:23:12.191Z,41.44
2019-06-20T20:25:59.709Z,41.71
2019-06-20T20:28:30.668Z,42.32
2019-06-20T20:31:02.001Z,42.50
2019-06-20T20:33:35.323Z,42.94
2019-06-20T20:36:06.111Z,43.00
2019-06-20T20:38:39.209Z,43.45
2019-06-20T20:41:10.013Z,43.71
2019-06-20T20:43:40.893Z,43.70
2019-06-20T20:46:27.166Z,43.96
2019-06-20T20:49:02.787Z,44.19
2019-06-20T20:51:44.399Z,44.72
2019-06-20T20:54:29.702Z,44.90
2019-06-20T20:57:02.061Z,45.13
2019-06-20T20:59:33.986Z,45.00
2019-06-20T21:02:17.228Z,44.58
2019-06-20T21:05:05.604Z,44.66
2019-06-20T21:08:14.067Z,44.40
2019-06-20T21:10:45.340Z,44.59
2019-06-20T21:13:20.472Z,44.27
2019-06-20T21:15:56.477Z,44.47
2019-06-20T21:18:54.336Z,44.65
2019-06-20T21:21:39.680Z,44.69
2019-06-20T21:24:38.389Z,44.80
2019-06-20T21:27:11.863Z,44.45
2019-06-20T21:29:45.413Z,43.88
2019-06-20T21:32:16.376Z,43.35
2019-06-20T21:35:03.562Z,43.23
2019-06-20T21:37:52.456Z,42.82
2019-06-20T21:40:19.973Z,42.32
2019-06-20T21:42:59.694Z,42.37
2019-06-20T21:45:59.656Z,41.79
2019-06-20T21:51:37.093Z,41.83
2019-06-20T21:54:08.886Z,41.29
2019-06-20T21:56:54.917Z,40.80
2019-06-20T21:59:33.455Z,40.80
2019-06-20T22:02:05.721Z,41.42
2019-06-20T22:04:53.771Z,41.42
2019-06-20T22:07:13.834Z,40.90
2019-06-20T22:09:47.024Z,40.90
2019-06-20T22:12:24.131Z,41.33
2019-06-20T22:15:00.886Z,41.77
2019-06-20T22:17:32.572Z,41.77
2019-06-20T22:20:07.830Z,41.90
2019-06-20T22:22:39.682Z,42.09
2019-06-20T22:28:28.227Z,41.35
2019-06-20T22:31:05.573Z,41.57
2019-06-20T22:33:53.444Z,41.57
2019-06-20T22:36:39.497Z,41.34
2019-06-20T22:39:11.776Z,40.86
2019-06-20T22:41:43.294Z,40.23
2019-06-20T22:44:26.702Z,39.55
2019-06-20T22:46:58.926Z,39.67
2019-06-20T22:49:33.506Z,39.51
2019-06-20T22:52:19.693Z,40.34
2019-06-20T22:55:02.978Z,41.00
2019-06-20T22:57:40.564Z,41.38
2019-06-20T23:00:24.238Z,41.47
2019-06-20T23:02:55.307Z,41.46
2019-06-20T23:05:29.422Z,41.58
2019-06-20T23:08:02.899Z,41.31
2019-06-20T23:10:37.975Z,41.28
2019-06-20T23:13:14.977Z,41.02
2019-06-20T23:15:56.523Z,41.21
2019-06-20T23:18:32.512Z,41.58
2019-06-20T23:21:22.786Z,42.28
2019-06-20T23:24:09.597Z,42.39
2019-06-20T23:26:41.326Z,41.93
2019-06-20T23:29:27.106Z,41.83
2019-06-20T23:32:00.358Z,42.33
2019-06-20T23:34:33.999Z,43.53
2019-06-20T23:37:12.853Z,43.76
2019-06-20T23:39:39.598Z,44.11
2019-06-20T23:42:10.348Z,44.12
2019-06-20T23:44:41.258Z,43.94
2019-06-20T23:47:13.311Z,43.70
2019-06-20T23:49:44.616Z,43.98
2019-06-20T23:52:19.222Z,43.69
2019-06-20T23:54:50.183Z,43.75
